createdAt,value
2022-08-16T00:00:05.161Z,18.40
2022-08-16T00:03:37.659Z,18.40
2022-08-16T00:04:46.400Z,18.50
2022-08-16T00:05:57.609Z,18.50
2022-08-16T00:07:00.640Z,18.50
2022-08-16T00:08:06.490Z,18.40
2022-08-16T00:10:22.331Z,18.40
2022-08-16T00:11:24.680Z,18.50
2022-08-16T00:12:31.351Z,18.50
2022-08-16T00:13:41.377Z,18.50
2022-08-16T00:17:16.336Z,18.40
2022-08-16T00:20:02.441Z,18.40
2022-08-16T00:32:00.460Z,18.40
2022-08-16T01:56:57.461Z,17.50
2022-08-16T01:58:07.465Z,17.60
2022-08-16T02:19:58.865Z,17.50
2022-08-16T02:21:11.467Z,17.50
2022-08-16T02:22:33.767Z,17.80
2022-08-16T02:23:39.886Z,17.60
2022-08-16T02:24:46.044Z,17.60
2022-08-16T02:25:56.456Z,17.60
2022-08-16T02:27:03.214Z,17.50
2022-08-16T02:28:23.419Z,17.50
2022-08-16T02:29:31.983Z,17.50
2022-08-16T02:30:44.085Z,17.60
2022-08-16T02:32:04.602Z,17.60
2022-08-16T02:33:20.525Z,17.50
2022-08-16T02:34:33.005Z,17.60
2022-08-16T02:35:58.022Z,17.60
2022-08-16T02:37:03.325Z,17.70
2022-08-16T02:38:08.817Z,17.60
2022-08-16T02:39:15.010Z,17.70
2022-08-16T02:40:18.685Z,17.70
2022-08-16T02:41:28.526Z,17.60
2022-08-16T02:42:33.577Z,17.60
2022-08-16T02:43:38.319Z,17.70
2022-08-16T02:44:42.449Z,17.60
2022-08-16T02:45:45.874Z,17.60
2022-08-16T04:51:27.546Z,19.00
2022-08-16T06:08:42.224Z,20.20
2022-08-16T06:26:08.012Z,20.60
2022-08-16T06:49:00.197Z,21.30
2022-08-16T06:50:28.337Z,21.30
2022-08-16T06:51:48.274Z,21.30
2022-08-16T06:52:58.375Z,21.50
2022-08-16T07:01:03.717Z,21.60
2022-08-16T07:02:33.313Z,21.70
2022-08-16T07:03:54.970Z,21.70
2022-08-16T07:04:59.426Z,21.70
2022-08-16T07:06:11.578Z,21.80
2022-08-16T07:07:14.929Z,21.80
2022-08-16T07:08:17.752Z,21.80
2022-08-16T07:09:22.386Z,21.90
2022-08-16T07:10:38.590Z,21.90
2022-08-16T07:11:51.700Z,22.00
2022-08-16T07:16:59.634Z,22.10
2022-08-16T07:18:04.428Z,22.20
2022-08-16T07:19:06.741Z,22.20
2022-08-16T07:20:34.960Z,22.20
2022-08-16T07:21:46.590Z,22.30
2022-08-16T07:23:13.383Z,22.30
2022-08-16T07:24:26.832Z,22.40
2022-08-16T07:25:34.558Z,22.40
2022-08-16T07:26:48.571Z,22.40
2022-08-16T07:27:59.359Z,22.50
2022-08-16T07:34:01.578Z,22.50
2022-08-16T07:35:04.597Z,22.70
2022-08-16T07:36:10.686Z,22.70
2022-08-16T07:37:15.087Z,22.80
2022-08-16T07:38:19.793Z,22.80
2022-08-16T07:39:33.382Z,22.80
2022-08-16T07:40:59.716Z,22.90
2022-08-16T07:42:02.184Z,22.90
2022-08-16T07:43:09.685Z,22.90
2022-08-16T07:44:19.551Z,23.00
2022-08-16T07:45:21.957Z,23.00
2022-08-16T07:46:37.938Z,23.10
2022-08-16T07:47:44.674Z,23.10
2022-08-16T07:48:55.781Z,23.10
2022-08-16T07:50:08.320Z,23.10
2022-08-16T07:51:35.498Z,23.20
2022-08-16T07:52:41.020Z,23.20
2022-08-16T07:53:49.557Z,23.20
2022-08-16T07:55:11.566Z,23.30
2022-08-16T07:56:14.809Z,23.30
2022-08-16T07:57:21.623Z,23.30
2022-08-16T07:58:34.211Z,23.40
2022-08-16T07:59:46.607Z,23.40
2022-08-16T08:00:51.005Z,23.50
2022-08-16T08:01:55.547Z,23.50
2022-08-16T08:03:00.428Z,23.60
2022-08-16T08:04:15.766Z,23.60
2022-08-16T08:05:35.482Z,23.60
2022-08-16T08:06:39.395Z,23.70
2022-08-16T08:07:45.051Z,23.80
2022-08-16T08:08:51.590Z,23.90
2022-08-16T08:10:01.743Z,23.40
2022-08-16T08:11:09.066Z,24.00
2022-08-16T08:12:32.112Z,24.10
2022-08-16T08:13:42.218Z,24.10
2022-08-16T08:14:52.583Z,24.20
2022-08-16T08:15:54.999Z,24.30
2022-08-16T08:17:01.396Z,24.40
2022-08-16T08:18:29.882Z,24.40
2022-08-16T08:19:34.572Z,24.40
2022-08-16T08:20:37.136Z,24.50
2022-08-16T08:21:59.393Z,24.40
2022-08-16T08:23:06.084Z,24.60
2022-08-16T08:24:17.583Z,24.60
2022-08-16T08:25:23.775Z,24.70
2022-08-16T08:26:26.179Z,24.30
2022-08-16T08:27:32.804Z,24.70
2022-08-16T08:29:00.746Z,24.70
2022-08-16T08:30:49.611Z,24.80
2022-08-16T08:31:36.360Z,24.80
2022-08-16T08:32:59.930Z,24.90
2022-08-16T08:34:01.897Z,25.00
2022-08-16T08:35:09.608Z,25.00
2022-08-16T08:36:33.182Z,25.10
2022-08-16T08:37:55.021Z,25.20
2022-08-16T08:39:12.950Z,25.10
2022-08-16T08:40:16.891Z,25.20
2022-08-16T08:41:27.326Z,25.20
2022-08-16T08:42:31.728Z,25.30
2022-08-16T08:43:41.275Z,25.40
2022-08-16T08:44:50.607Z,25.30
2022-08-16T08:46:01.671Z,25.10
2022-08-16T08:47:16.685Z,25.40
2022-08-16T08:48:33.836Z,25.40
2022-08-16T08:49:46.864Z,25.50
2022-08-16T08:50:59.884Z,25.60
2022-08-16T08:52:09.635Z,25.60
2022-08-16T08:53:13.616Z,25.70
2022-08-16T08:54:20.521Z,25.70
2022-08-16T08:55:26.466Z,25.70
2022-08-16T08:56:45.368Z,25.80
2022-08-16T08:57:50.096Z,25.90
2022-08-16T08:58:59.981Z,25.80
2022-08-16T09:00:13.792Z,25.90
2022-08-16T09:01:32.008Z,26.00
2022-08-16T09:02:52.047Z,25.90
2022-08-16T09:03:57.745Z,26.00
2022-08-16T09:05:00.333Z,26.00
2022-08-16T09:06:05.257Z,26.30
2022-08-16T09:08:21.971Z,26.10
2022-08-16T09:09:33.754Z,26.10
2022-08-16T09:10:40.790Z,26.20
2022-08-16T09:11:47.251Z,26.30
2022-08-16T09:12:59.629Z,26.20
2022-08-16T09:14:03.087Z,26.30
2022-08-16T09:15:08.928Z,26.40
2022-08-16T09:17:00.837Z,26.50
2022-08-16T09:17:51.840Z,26.50
2022-08-16T09:19:00.843Z,26.80
2022-08-16T09:20:07.727Z,26.50
2022-08-16T09:21:11.427Z,26.50
2022-08-16T09:22:20.727Z,26.50
2022-08-16T09:23:36.501Z,26.60
2022-08-16T09:24:52.322Z,26.60
2022-08-16T09:25:56.961Z,26.60
2022-08-16T09:26:59.627Z,26.70
2022-08-16T09:28:38.214Z,26.70
2022-08-16T09:29:45.863Z,26.80
2022-08-16T09:30:56.626Z,27.00
2022-08-16T09:32:00.120Z,27.00
2022-08-16T09:33:03.898Z,27.10
2022-08-16T09:34:10.405Z,27.10
2022-08-16T09:35:14.114Z,27.10
2022-08-16T09:36:32.039Z,27.20
2022-08-16T09:37:36.755Z,27.30
2022-08-16T09:38:40.972Z,27.40
2022-08-16T09:39:49.733Z,27.50
2022-08-16T09:40:53.272Z,27.50
2022-08-16T09:42:06.637Z,27.60
2022-08-16T09:43:46.568Z,27.60
2022-08-16T09:45:11.227Z,27.70
2022-08-16T09:46:03.133Z,27.80
2022-08-16T09:47:12.615Z,27.80
2022-08-16T09:48:37.174Z,27.90
2022-08-16T09:49:45.615Z,27.90
2022-08-16T09:50:54.198Z,28.00
2022-08-16T09:51:59.479Z,28.00
2022-08-16T09:53:02.570Z,28.00
2022-08-16T09:54:16.954Z,28.10
2022-08-16T09:55:22.035Z,28.10
2022-08-16T09:56:31.969Z,28.10
2022-08-16T09:57:34.564Z,28.10
2022-08-16T09:59:05.797Z,28.10
2022-08-16T10:00:42.667Z,28.20
2022-08-16T10:01:38.467Z,28.20
2022-08-16T10:02:48.220Z,28.10
2022-08-16T10:04:02.015Z,28.20
2022-08-16T10:05:13.684Z,28.20
2022-08-16T10:06:16.014Z,28.30
2022-08-16T10:07:44.145Z,28.20
2022-08-16T10:09:04.353Z,28.30
2022-08-16T10:10:11.801Z,28.30
2022-08-16T10:11:50.605Z,28.30
2022-08-16T10:13:18.673Z,28.40
2022-08-16T10:14:24.556Z,28.40
2022-08-16T10:15:30.266Z,28.40
2022-08-16T10:16:33.962Z,28.50
2022-08-16T10:17:42.982Z,28.50
2022-08-16T10:19:01.798Z,28.70
2022-08-16T10:20:11.385Z,28.60
2022-08-16T10:21:29.074Z,28.70
2022-08-16T10:22:35.149Z,28.80
2022-08-16T10:23:38.462Z,28.70
2022-08-16T10:24:56.166Z,28.80
2022-08-16T10:27:16.986Z,28.80
2022-08-16T10:27:45.665Z,28.80
2022-08-16T10:29:05.013Z,28.90
2022-08-16T10:30:24.973Z,28.90
2022-08-16T10:31:45.967Z,28.90
2022-08-16T10:32:56.628Z,29.00
2022-08-16T10:34:01.558Z,29.10
2022-08-16T10:35:04.637Z,29.10
2022-08-16T10:36:10.176Z,29.10
2022-08-16T10:37:14.624Z,29.10
2022-08-16T10:38:43.659Z,29.20
2022-08-16T10:39:46.247Z,29.20
2022-08-16T10:40:49.767Z,29.20
2022-08-16T10:41:53.256Z,29.10
2022-08-16T10:43:00.099Z,29.20
2022-08-16T10:44:10.683Z,29.20
2022-08-16T10:45:13.175Z,29.20
2022-08-16T10:46:39.413Z,29.30
2022-08-16T10:47:39.899Z,29.20
2022-08-16T10:48:47.161Z,29.30
2022-08-16T10:49:56.669Z,29.30
2022-08-16T10:51:01.149Z,29.40
2022-08-16T10:52:18.116Z,29.40
2022-08-16T10:53:22.414Z,29.50
2022-08-16T10:54:29.458Z,29.60
2022-08-16T10:55:44.303Z,29.60
2022-08-16T10:56:55.227Z,29.60
2022-08-16T10:58:11.507Z,29.80
2022-08-16T10:59:39.049Z,30.20
2022-08-16T11:00:49.056Z,30.70
2022-08-16T11:06:12.369Z,30.30
2022-08-16T11:10:21.022Z,30.10
2022-08-16T11:11:34.814Z,30.00
2022-08-16T11:13:21.072Z,29.80
2022-08-16T11:14:24.269Z,29.70
2022-08-16T11:15:26.826Z,29.50
2022-08-16T11:19:30.286Z,29.80
2022-08-16T11:20:41.309Z,29.70
2022-08-16T11:23:17.459Z,29.70
2022-08-16T11:24:42.438Z,29.70
2022-08-16T11:27:23.062Z,29.70
2022-08-16T11:30:19.812Z,29.90
2022-08-16T11:31:29.687Z,29.90
2022-08-16T11:32:43.662Z,30.00
2022-08-16T11:33:54.962Z,30.00
2022-08-16T11:35:10.349Z,30.10
2022-08-16T11:36:27.273Z,30.50
2022-08-16T11:39:03.594Z,30.70
2022-08-16T11:40:07.800Z,30.90
2022-08-16T11:41:12.545Z,30.90
2022-08-16T11:42:23.194Z,31.00
2022-08-16T11:43:43.711Z,30.90
2022-08-16T11:44:52.510Z,31.00
2022-08-16T11:46:07.786Z,31.20
2022-08-16T11:47:23.734Z,31.20
2022-08-16T11:48:35.713Z,31.00
2022-08-16T11:49:38.136Z,31.10
2022-08-16T11:50:42.583Z,31.10
2022-08-16T11:51:52.684Z,30.80
2022-08-16T11:52:55.995Z,30.60
2022-08-16T11:54:05.766Z,30.30
2022-08-16T11:55:23.637Z,30.10
2022-08-16T11:56:39.565Z,30.00
2022-08-16T11:57:50.325Z,30.10
2022-08-16T11:58:58.737Z,30.20
2022-08-16T12:00:08.741Z,30.30
2022-08-16T12:01:44.380Z,30.30
2022-08-16T12:02:56.585Z,30.40
2022-08-16T12:03:58.926Z,30.30
2022-08-16T12:05:03.408Z,30.30
2022-08-16T12:06:24.844Z,30.30
2022-08-16T12:07:29.092Z,30.30
2022-08-16T12:08:35.903Z,29.90
2022-08-16T12:09:46.702Z,29.60
2022-08-16T12:10:52.167Z,29.60
2022-08-16T12:11:55.581Z,29.40
2022-08-16T12:12:58.069Z,29.50
2022-08-16T12:14:14.709Z,29.40
2022-08-16T12:15:21.022Z,29.40
2022-08-16T12:16:31.247Z,29.50
2022-08-16T12:17:39.485Z,29.60
2022-08-16T12:19:52.891Z,29.90
2022-08-16T12:20:58.376Z,30.00
2022-08-16T12:22:05.358Z,30.10
2022-08-16T12:23:09.745Z,30.20
2022-08-16T12:24:18.701Z,30.20
2022-08-16T12:25:30.700Z,30.20
2022-08-16T12:26:34.331Z,30.20
2022-08-16T12:27:41.034Z,30.30
2022-08-16T12:36:23.772Z,30.80
2022-08-16T12:37:26.039Z,30.60
2022-08-16T12:38:41.539Z,30.30
2022-08-16T12:42:06.768Z,29.90
2022-08-16T12:43:12.508Z,29.80
2022-08-16T18:22:28.291Z,19.30
2022-08-16T18:23:33.997Z,19.40
2022-08-16T18:24:37.533Z,19.40
2022-08-16T18:25:43.346Z,19.50
2022-08-16T18:26:47.837Z,19.50
2022-08-16T18:27:57.126Z,19.40
2022-08-16T18:29:22.872Z,19.40
2022-08-16T18:30:25.485Z,19.40
2022-08-16T18:31:29.116Z,19.40
2022-08-16T18:32:37.919Z,19.40
2022-08-16T18:33:43.620Z,19.40
2022-08-16T18:34:46.728Z,19.50
2022-08-16T18:35:57.025Z,19.60
2022-08-16T18:37:01.425Z,19.60
2022-08-16T18:38:10.899Z,19.60
2022-08-16T18:39:14.405Z,19.50
2022-08-16T18:40:17.374Z,19.50
2022-08-16T19:33:37.183Z,19.40
2022-08-16T19:34:46.414Z,19.50
2022-08-16T19:35:53.147Z,19.50
2022-08-16T19:36:59.211Z,19.50
2022-08-16T19:38:08.121Z,19.50
2022-08-16T19:39:24.935Z,19.50
2022-08-16T19:41:53.611Z,19.30
2022-08-16T19:43:03.559Z,19.40
2022-08-16T19:44:11.824Z,19.50
2022-08-16T19:45:32.468Z,19.50
2022-08-16T19:46:38.424Z,19.50
2022-08-16T19:47:48.486Z,19.60
2022-08-16T19:49:02.418Z,19.50
2022-08-16T19:50:18.489Z,19.60
2022-08-16T19:51:25.052Z,19.50
2022-08-16T19:52:35.540Z,19.50
2022-08-16T19:53:46.019Z,19.60
2022-08-16T19:54:54.287Z,19.60
2022-08-16T19:56:06.262Z,19.60
2022-08-16T19:59:40.479Z,19.60
2022-08-16T20:00:52.497Z,19.60
2022-08-16T20:02:07.697Z,19.50
2022-08-16T20:03:36.320Z,19.50
2022-08-16T20:04:42.257Z,19.60
2022-08-16T20:05:48.357Z,19.60
2022-08-16T20:07:02.025Z,19.60
2022-08-16T20:08:07.524Z,19.60
2022-08-16T20:10:28.988Z,19.60
2022-08-16T20:11:33.731Z,19.70
2022-08-16T20:12:37.561Z,19.60
2022-08-16T20:13:47.085Z,19.60
2022-08-16T20:14:52.819Z,19.70
2022-08-16T20:16:04.547Z,19.70
2022-08-16T20:17:10.947Z,19.70
2022-08-16T20:18:22.823Z,19.70
2022-08-16T20:19:40.008Z,19.70
2022-08-16T20:20:52.105Z,19.60
2022-08-16T20:22:01.876Z,19.70
2022-08-16T20:23:07.389Z,19.70
2022-08-16T20:24:32.588Z,19.70
2022-08-16T20:25:34.117Z,19.70
2022-08-16T20:26:49.937Z,19.70
2022-08-16T20:27:53.670Z,19.60
2022-08-16T20:28:56.700Z,19.50
2022-08-16T20:30:14.000Z,19.60
2022-08-16T20:31:25.123Z,19.60
2022-08-16T20:32:36.352Z,19.60
2022-08-16T20:33:41.320Z,19.60
2022-08-16T20:34:46.079Z,19.60
2022-08-16T20:37:07.005Z,19.60
2022-08-16T20:38:13.188Z,20.00
2022-08-16T20:39:15.626Z,19.60
2022-08-16T20:40:29.620Z,19.50
2022-08-16T20:41:37.106Z,19.60
2022-08-16T20:45:00.504Z,19.30
2022-08-16T20:46:02.789Z,19.60
2022-08-16T23:15:49.593Z,19.00
2022-08-16T23:16:55.208Z,18.60
2022-08-16T23:17:58.145Z,18.70
2022-08-16T23:19:09.030Z,18.60
2022-08-16T23:20:19.028Z,18.60
2022-08-16T23:21:24.836Z,18.60
2022-08-16T23:23:32.644Z,18.60
2022-08-16T23:24:45.871Z,18.70
2022-08-16T23:26:01.726Z,18.70
2022-08-16T23:28:15.987Z,18.60
2022-08-16T23:29:23.555Z,18.60
2022-08-16T23:31:45.585Z,18.50
2022-08-16T23:51:14.705Z,18.40
2022-08-16T23:55:58.243Z,18.40
